Flight Track Log - Related Links

Times and Time Zones

All times are in EDT time to prevent confusion due to time zone crossing. See the N3066W flight status page for this flight to view local times or setup timezone preferences in your user account.

Time Position Orientation Groundspeed Altitude Reporting Facility
EDT Latitude Longitude Course Direction KTS MPH feet Rate Location/Type
Fri 02:58:19 PM 33.9769 -116.7564 314° West 183 211 12,500  Level Los Angeles Center
Fri 02:59:21 PM 34.0075 -116.8175 301° West 212 244 12,600 532 Climbing Los Angeles Center
Fri 03:00:23 PM 34.0431 -116.8744 307° West 213 245 13,600 1,016 Climbing Los Angeles Center
Fri 03:01:25 PM 34.0689 -116.9236 302° West 179 206 14,700 871 Climbing Los Angeles Center
Fri 03:02:27 PM 34.0947 -116.9736 302° West 177 204 15,400 816 Climbing Los Angeles Center
Fri 03:03:00 PM 34.4300 -117.2531 314° West  Level Estimated
Fri 03:03:30 PM 34.1264 -117.0269 306° West 175 201 16,400  Level Los Angeles Center
Fri 03:04:32 PM 34.1581 -117.0783 307° West 189 217 16,600 48 Climbing Los Angeles Center
Fri 03:05:34 PM 34.1903 -117.1386 303° West 212 244 16,500  Descending Los Angeles Center
Fri 03:06:36 PM 34.2264 -117.2033 304° West 216 249 16,600 44 Climbing Los Angeles Center
Fri 03:07:50 PM 34.2625 -117.2636 306° West 220 253 16,600  Level Los Angeles Center
Fri 03:08:52 PM 34.3053 -117.3378 305° West 224 258 16,600  Level Los Angeles Center
Fri 03:09:55 PM 34.3464 -117.4136 303° West 225 259 16,600  Level Los Angeles Center
Fri 03:10:57 PM 34.3822 -117.4764 305° West 227 261 16,600 48 Level Los Angeles Center
Fri 03:11:59 PM 34.4147 -117.5378 303° West 224 258 16,700 48 Climbing Los Angeles Center
Fri 03:13:01 PM 34.4497 -117.6003 304° West 225 259 16,700  Level Los Angeles Center
Fri 03:14:03 PM 34.4844 -117.6628 304° West 223 257 16,700  Level Los Angeles Center
Fri 03:15:05 PM 34.5269 -117.7383 304° West 226 260 16,700  Level Los Angeles Center
Fri 03:16:07 PM 34.5622 -117.8011 304° West 225 259 16,700  Level Los Angeles Center
Fri 03:17:09 PM 34.5969 -117.8636 304° West 223 257 16,700  Level Los Angeles Center
Fri 03:18:12 PM 34.6322 -117.9267 304° West 225 259 16,700  Level Los Angeles Center
Fri 03:19:14 PM 34.6667 -117.9894 304° West 224 258 16,700 48 Level Los Angeles Center
Fri 03:20:16 PM 34.7011 -118.0514 304° West 222 255 16,800 48 Climbing Los Angeles Center
Fri 03:21:18 PM 34.7431 -118.1258 304° West 223 257 16,800 -97 Level Los Angeles Center
Fri 03:22:20 PM 34.7786 -118.1914 303° West 228 262 16,600 -88 Descending Los Angeles Center
Fri 03:23:34 PM 34.8136 -118.2556 304° West 229 264 16,600  Level Los Angeles Center
Fri 03:24:37 PM 34.8556 -118.3289 305° West 221 254 16,600  Level Los Angeles Center
Fri 03:25:39 PM 34.9031 -118.3794 319° Northwest 226 260 16,600  Level Los Angeles Center
Fri 03:26:41 PM 34.9492 -118.4317 317° Northwest 224 258 16,600  Level Los Angeles Center
Fri 03:27:43 PM 34.9858 -118.4733 317° Northwest 225 259 16,600  Level Los Angeles Center
Fri 03:28:45 PM 35.0492 -118.5436 318° Northwest 223 257 16,600  Level Los Angeles Center
Fri 03:29:47 PM 35.0958 -118.5958 318° Northwest 226 260 16,600  Level Los Angeles Center
Fri 03:30:49 PM 35.1414 -118.6486 317° Northwest 226 260 16,600 -48 Level Los Angeles Center
Fri 03:31:52 PM 35.1886 -118.7000 318° Northwest 227 261 16,500 -44 Descending Los Angeles Center
Fri 03:33:06 PM 35.2525 -118.7733 317° Northwest 226 260 16,500  Level Los Angeles Center
Fri 03:34:08 PM 35.2983 -118.8250 317° Northwest 224 258 16,500  Level Los Angeles Center
Fri 03:35:10 PM 35.3428 -118.8761 317° Northwest 221 254 16,500  Level Los Angeles Center
Fri 03:36:12 PM 35.3883 -118.9278 317° Northwest 222 255 16,500  Level Los Angeles Center
Fri 03:37:15 PM 35.4347 -118.9814 317° Northwest 228 262 16,500  Level Los Angeles Center
Fri 03:38:17 PM 35.4872 -119.0431 316° Northwest 220 253 16,500  Level Los Angeles Center
Fri 03:39:19 PM 35.5319 -119.0936 317° Northwest 220 253 16,500  Level Los Angeles Center
Fri 03:40:21 PM 35.5778 -119.1453 317° Northwest 223 257 16,500  Level Los Angeles Center
Fri 03:41:23 PM 35.6217 -119.1978 316° Northwest 222 255 16,500  Level Los Angeles Center
Fri 03:42:06 PM 35.6583 -119.2389 318° Northwest 225 259 16,500  Level Oakland Center
Fri 03:43:07 PM 35.7022 -119.2908 316° Northwest 222 255 16,500  Level Oakland Center
Fri 03:44:09 PM 35.7481 -119.3442 317° Northwest 225 259 16,500  Level Oakland Center
Fri 03:45:11 PM 35.7931 -119.3967 317° Northwest 225 259 16,500 49 Level Oakland Center
Fri 03:46:12 PM 35.8378 -119.4492 316° Northwest 223 257 16,600 49 Climbing Oakland Center
Fri 03:47:14 PM 35.8833 -119.5025 317° Northwest 226 260 16,600  Level Oakland Center
Fri 03:48:15 PM 35.9383 -119.5664 317° Northwest 227 261 16,600  Level Oakland Center
Fri 03:49:17 PM 35.9836 -119.6186 317° Northwest 227 261 16,600  Level Oakland Center
Fri 03:50:19 PM 36.0283 -119.6697 317° Northwest 220 253 16,600  Level Oakland Center
Fri 03:51:20 PM 36.0747 -119.7228 317° Northwest 228 262 16,600  Level Oakland Center
Fri 03:52:22 PM 36.1206 -119.7767 316° Northwest 229 264 16,600  Level Oakland Center
Fri 03:53:23 PM 36.1661 -119.8303 316° Northwest 227 261 16,600  Level Oakland Center
Fri 03:54:25 PM 36.2119 -119.8844 316° Northwest 228 262 16,600  Level Oakland Center
Fri 03:55:27 PM 36.2661 -119.9489 316° Northwest 226 260 16,600  Level Oakland Center
Fri 03:56:28 PM 36.3117 -120.0019 317° Northwest 225 259 16,600  Level Oakland Center
Fri 03:57:30 PM 36.3564 -120.0561 316° Northwest 225 259 16,600  Level Oakland Center
Fri 03:58:32 PM 36.4011 -120.1100 316° Northwest 225 259 16,600  Level Oakland Center
Fri 03:59:33 PM 36.4467 -120.1642 316° Northwest 227 261 16,600  Level Oakland Center
Fri 04:00:35 PM 36.4925 -120.2192 316° Northwest 230 265 16,600  Level Oakland Center
Fri 04:01:37 PM 36.5381 -120.2733 316° Northwest 229 264 16,600  Level Oakland Center
Fri 04:02:38 PM 36.5917 -120.3386 316° Northwest 225 259 16,600  Level Oakland Center
Fri 04:03:40 PM 36.6364 -120.3931 316° Northwest 226 260 16,600  Level Oakland Center
Fri 04:04:42 PM 36.6814 -120.4469 316° Northwest 226 260 16,600  Level Oakland Center
Fri 04:05:43 PM 36.7264 -120.5008 316° Northwest 224 258 16,600  Level Oakland Center
Fri 04:06:45 PM 36.7717 -120.5561 316° Northwest 228 262 16,600  Level Oakland Center
Fri 04:07:47 PM 36.8225 -120.6183 316° Northwest 227 261 16,600  Level Oakland Center
Fri 04:08:48 PM 36.8617 -120.6658 316° Northwest 227 261 16,600  Level Oakland Center
Fri 04:09:50 PM 36.9161 -120.7317 316° Northwest 227 261 16,600  Level Oakland Center
Fri 04:10:51 PM 36.9619 -120.7861 317° Northwest 228 262 16,600  Level Oakland Center
Fri 04:11:53 PM 37.0075 -120.8403 316° Northwest 227 261 16,600  Level Oakland Center
Fri 04:12:55 PM 37.0528 -120.8953 316° Northwest 227 261 16,600  Level Oakland Center
Fri 04:13:56 PM 37.0969 -120.9500 315° West 224 258 16,600  Level Oakland Center
Fri 04:14:58 PM 37.1414 -121.0031 316° Northwest 222 255 16,600  Level Oakland Center
Fri 04:16:00 PM 37.1867 -121.0539 318° Northwest 220 253 16,600 -195 Level Oakland Center
Fri 04:17:01 PM 37.2317 -121.1114 315° West 228 262 16,200 -683 Descending Oakland Center
Fri 04:18:03 PM 37.2908 -121.1842 316° Northwest 248 285 15,200 -871 Descending Oakland Center
Fri 04:19:05 PM 37.3408 -121.2453 316° Northwest 250 288 14,400 -732 Descending Oakland Center
Fri 04:20:06 PM 37.3897 -121.3056 316° Northwest 254 292 13,700 -629 Descending Oakland Center
Fri 04:21:09 PM 37.4500 -121.3833 314° West 243 280 13,100 -791 Descending Northern Cal TRACON
Fri 04:22:15 PM 37.5000 -121.4500 313° West 254 292 12,000 -1,000 Descending Northern Cal TRACON
Fri 04:23:09 PM 37.5333 -121.5000 310° West 246 283 11,100 -1,000 Descending Northern Cal TRACON
Fri 04:24:09 PM 37.5833 -121.5667 313° West 237 273 10,100 -992 Descending Northern Cal TRACON
Fri 04:25:10 PM 37.6167 -121.6333 302° West 234 269 9,100 -1,000 Descending Northern Cal TRACON
Fri 04:26:09 PM 37.6667 -121.6833 322° Northwest 238 274 8,100 -958 Descending Northern Cal TRACON
Fri 04:27:09 PM 37.7167 -121.7500 313° West 233 268 7,200 -850 Descending Northern Cal TRACON
Fri 04:28:09 PM 37.7500 -121.8167 302° West 234 269 6,400 -900 Descending Northern Cal TRACON
Fri 04:29:09 PM 37.8000 -121.8667 322° Northwest 215 247 5,400 -582 Descending Northern Cal TRACON
Fri 04:30:23 PM 37.8328 -121.9242 306° West 219 252 5,100 -243 Descending Oakland Center
Fri 04:32:00 PM 37.9138 -121.9795 314° West  Level FlightAware Approximate
Fri 04:39:00 PM 37.9833 -122.0500 322° Northwest  Level FlightAware Approximate
Fri 04:40:00 PM 37.9897 -122.0569 322° Northwest  Level Estimated
Fri 04:41:00 PM 37.9897 -122.0569 322° Northwest  Level Estimated
Fri 04:42:00 PM 37.9897 -122.0569 322° Northwest  Level Estimated
Fri 04:43:00 PM 37.9897 -122.0569 322° Northwest  Level Estimated
Fri 04:44:00 PM 37.9897 -122.0569 322° Northwest  Level Estimated

Login

Don't have an account? Register now (free) for customized features, flight alerts, and more!